Terminal Aerodrome Forecast
Issued by NWS Duluth, MN

Home | Current Version | Previous Version | Text Only | Print | Product List | Glossary On
Versions: 1 2 3 4 5 6 7 8 9 10 11 12 13 14 15 16 17 18 19 20 21 22 23 24 25 26
000
FTUS43 KDLH 212000 AAA
TAFDLH
TAF AMD
KDLH 212001Z 2120/2218 34010G16KT P6SM SKC
     FM212300 34008KT P6SM FEW030
     FM220400 30003KT P6SM FEW019
      TEMPO 2209/2213 4SM BR SCT006
     FM221600 26009KT P6SM SCT035=

USA.gov is the U.S. government's official web portal to all federal, state and local government web resources and services.